sensor_id;sensor_type;location;lat;lon;timestamp;P1;durP1;ratioP1;P2;durP2;ratioP2
65717;SDS011;52445;52.466;-1.016;2023-12-28T00:02:05;9.35;;;1.25;;
65717;SDS011;52445;52.466;-1.016;2023-12-28T00:04:32;9.95;;;0.63;;
65717;SDS011;52445;52.466;-1.016;2023-12-28T00:07:02;6.05;;;1.67;;
65717;SDS011;52445;52.466;-1.016;2023-12-28T00:09:29;8.55;;;0.88;;
65717;SDS011;52445;52.466;-1.016;2023-12-28T00:11:55;7.97;;;1.08;;
65717;SDS011;52445;52.466;-1.016;2023-12-28T00:14:22;8.93;;;1.35;;
65717;SDS011;52445;52.466;-1.016;2023-12-28T00:16:49;4.00;;;1.40;;
65717;SDS011;52445;52.466;-1.016;2023-12-28T00:19:16;14.20;;;1.33;;
65717;SDS011;52445;52.466;-1.016;2023-12-28T00:21:42;10.90;;;1.35;;
65717;SDS011;52445;52.466;-1.016;2023-12-28T00:24:09;7.70;;;1.30;;
65717;SDS011;52445;52.466;-1.016;2023-12-28T00:26:36;12.38;;;1.92;;
65717;SDS011;52445;52.466;-1.016;2023-12-28T00:29:02;7.90;;;1.63;;
65717;SDS011;52445;52.466;-1.016;2023-12-28T00:31:29;5.28;;;1.17;;
65717;SDS011;52445;52.466;-1.016;2023-12-28T00:33:58;8.07;;;1.30;;
65717;SDS011;52445;52.466;-1.016;2023-12-28T00:36:24;10.35;;;1.20;;
65717;SDS011;52445;52.466;-1.016;2023-12-28T00:38:52;9.13;;;1.30;;
65717;SDS011;52445;52.466;-1.016;2023-12-28T00:41:18;10.20;;;1.52;;
65717;SDS011;52445;52.466;-1.016;2023-12-28T00:43:45;11.70;;;1.42;;
65717;SDS011;52445;52.466;-1.016;2023-12-28T00:46:12;3.58;;;0.70;;
65717;SDS011;52445;52.466;-1.016;2023-12-28T00:48:38;10.43;;;1.70;;
65717;SDS011;52445;52.466;-1.016;2023-12-28T00:51:05;5.05;;;1.30;;
65717;SDS011;52445;52.466;-1.016;2023-12-28T00:53:32;4.72;;;1.30;;
65717;SDS011;52445;52.466;-1.016;2023-12-28T00:55:58;11.55;;;1.88;;
65717;SDS011;52445;52.466;-1.016;2023-12-28T00:58:25;9.55;;;1.13;;
65717;SDS011;52445;52.466;-1.016;2023-12-28T01:00:51;8.98;;;0.93;;
65717;SDS011;52445;52.466;-1.016;2023-12-28T01:03:22;3.58;;;0.82;;
65717;SDS011;52445;52.466;-1.016;2023-12-28T01:05:50;9.35;;;1.75;;
65717;SDS011;52445;52.466;-1.016;2023-12-28T01:08:18;13.02;;;1.40;;
65717;SDS011;52445;52.466;-1.016;2023-12-28T01:10:45;8.40;;;1.00;;
65717;SDS011;52445;52.466;-1.016;2023-12-28T01:13:12;14.07;;;1.55;;
65717;SDS011;52445;52.466;-1.016;2023-12-28T01:15:38;9.15;;;2.03;;
65717;SDS011;52445;52.466;-1.016;2023-12-28T01:18:06;9.50;;;2.17;;
65717;SDS011;52445;52.466;-1.016;2023-12-28T01:20:35;13.27;;;1.50;;
65717;SDS011;52445;52.466;-1.016;2023-12-28T01:23:04;13.63;;;1.58;;
65717;SDS011;52445;52.466;-1.016;2023-12-28T01:25:31;8.60;;;1.50;;
65717;SDS011;52445;52.466;-1.016;2023-12-28T01:27:58;4.40;;;0.70;;
65717;SDS011;52445;52.466;-1.016;2023-12-28T01:30:26;6.20;;;1.02;;
65717;SDS011;52445;52.466;-1.016;2023-12-28T01:32:54;7.78;;;1.77;;
65717;SDS011;52445;52.466;-1.016;2023-12-28T01:35:23;11.38;;;1.27;;
65717;SDS011;52445;52.466;-1.016;2023-12-28T01:37:50;9.18;;;1.10;;
65717;SDS011;52445;52.466;-1.016;2023-12-28T01:40:18;8.32;;;1.42;;
65717;SDS011;52445;52.466;-1.016;2023-12-28T01:42:44;9.88;;;1.50;;
65717;SDS011;52445;52.466;-1.016;2023-12-28T01:45:12;8.90;;;1.92;;
65717;SDS011;52445;52.466;-1.016;2023-12-28T01:47:39;15.05;;;2.20;;
65717;SDS011;52445;52.466;-1.016;2023-12-28T01:50:07;11.27;;;2.15;;
65717;SDS011;52445;52.466;-1.016;2023-12-28T01:52:36;10.90;;;1.60;;
65717;SDS011;52445;52.466;-1.016;2023-12-28T01:55:04;9.25;;;1.40;;
65717;SDS011;52445;52.466;-1.016;2023-12-28T01:57:34;9.60;;;2.00;;
65717;SDS011;52445;52.466;-1.016;2023-12-28T02:00:01;12.02;;;1.77;;
65717;SDS011;52445;52.466;-1.016;2023-12-28T02:02:30;6.88;;;1.27;;
65717;SDS011;52445;52.466;-1.016;2023-12-28T02:04:59;8.77;;;1.33;;
65717;SDS011;52445;52.466;-1.016;2023-12-28T02:07:29;12.07;;;1.63;;
65717;SDS011;52445;52.466;-1.016;2023-12-28T02:09:56;9.55;;;1.35;;
65717;SDS011;52445;52.466;-1.016;2023-12-28T02:12:22;11.68;;;1.88;;
65717;SDS011;52445;52.466;-1.016;2023-12-28T02:14:51;6.70;;;1.92;;
65717;SDS011;52445;52.466;-1.016;2023-12-28T02:17:22;9.52;;;1.42;;
65717;SDS011;52445;52.466;-1.016;2023-12-28T02:19:55;19.30;;;1.52;;
65717;SDS011;52445;52.466;-1.016;2023-12-28T02:22:25;6.25;;;1.33;;
65717;SDS011;52445;52.466;-1.016;2023-12-28T02:27:51;10.93;;;1.60;;
65717;SDS011;52445;52.466;-1.016;2023-12-28T02:30:20;16.33;;;1.88;;
65717;SDS011;52445;52.466;-1.016;2023-12-28T02:32:54;7.03;;;1.98;;
65717;SDS011;52445;52.466;-1.016;2023-12-28T02:35:43;14.80;;;2.20;;
65717;SDS011;52445;52.466;-1.016;2023-12-28T02:38:13;13.68;;;2.80;;
65717;SDS011;52445;52.466;-1.016;2023-12-28T02:40:42;12.90;;;2.78;;
65717;SDS011;52445;52.466;-1.016;2023-12-28T02:43:10;10.23;;;1.90;;
65717;SDS011;52445;52.466;-1.016;2023-12-28T02:45:38;8.93;;;2.58;;
65717;SDS011;52445;52.466;-1.016;2023-12-28T02:48:07;10.70;;;4.18;;
65717;SDS011;52445;52.466;-1.016;2023-12-28T02:50:35;10.13;;;1.90;;
65717;SDS011;52445;52.466;-1.016;2023-12-28T02:53:03;9.85;;;2.40;;
65717;SDS011;52445;52.466;-1.016;2023-12-28T02:55:30;11.75;;;2.30;;
65717;SDS011;52445;52.466;-1.016;2023-12-28T02:57:57;12.23;;;2.67;;
65717;SDS011;52445;52.466;-1.016;2023-12-28T03:00:27;8.70;;;3.63;;
65717;SDS011;52445;52.466;-1.016;2023-12-28T03:02:54;8.70;;;2.55;;
65717;SDS011;52445;52.466;-1.016;2023-12-28T03:05:21;15.23;;;3.13;;
65717;SDS011;52445;52.466;-1.016;2023-12-28T03:07:49;18.17;;;2.75;;
65717;SDS011;52445;52.466;-1.016;2023-12-28T03:10:16;21.13;;;2.80;;
65717;SDS011;52445;52.466;-1.016;2023-12-28T03:12:43;11.68;;;2.08;;
65717;SDS011;52445;52.466;-1.016;2023-12-28T03:15:09;14.02;;;2.97;;
65717;SDS011;52445;52.466;-1.016;2023-12-28T03:17:36;12.90;;;3.20;;
65717;SDS011;52445;52.466;-1.016;2023-12-28T03:20:05;12.45;;;2.53;;
65717;SDS011;52445;52.466;-1.016;2023-12-28T03:22:32;13.18;;;3.38;;
65717;SDS011;52445;52.466;-1.016;2023-12-28T03:24:59;17.23;;;3.33;;
65717;SDS011;52445;52.466;-1.016;2023-12-28T03:27:26;17.83;;;3.00;;
65717;SDS011;52445;52.466;-1.016;2023-12-28T03:29:53;9.63;;;2.45;;
65717;SDS011;52445;52.466;-1.016;2023-12-28T03:32:19;10.68;;;2.50;;
65717;SDS011;52445;52.466;-1.016;2023-12-28T03:34:46;14.75;;;2.47;;
65717;SDS011;52445;52.466;-1.016;2023-12-28T03:37:13;13.48;;;3.22;;
65717;SDS011;52445;52.466;-1.016;2023-12-28T03:39:39;12.40;;;2.33;;
65717;SDS011;52445;52.466;-1.016;2023-12-28T03:42:07;5.00;;;1.88;;
65717;SDS011;52445;52.466;-1.016;2023-12-28T03:44:34;10.30;;;2.80;;
65717;SDS011;52445;52.466;-1.016;2023-12-28T03:47:01;13.68;;;3.05;;
65717;SDS011;52445;52.466;-1.016;2023-12-28T03:49:30;19.73;;;2.47;;
65717;SDS011;52445;52.466;-1.016;2023-12-28T03:51:57;11.20;;;2.53;;
65717;SDS011;52445;52.466;-1.016;2023-12-28T03:54:23;12.57;;;2.25;;
65717;SDS011;52445;52.466;-1.016;2023-12-28T03:56:50;12.52;;;2.33;;
65717;SDS011;52445;52.466;-1.016;2023-12-28T03:59:17;11.27;;;2.20;;
65717;SDS011;52445;52.466;-1.016;2023-12-28T04:01:44;7.32;;;3.25;;
65717;SDS011;52445;52.466;-1.016;2023-12-28T04:04:11;13.43;;;2.53;;
65717;SDS011;52445;52.466;-1.016;2023-12-28T04:06:38;11.45;;;2.33;;
65717;SDS011;52445;52.466;-1.016;2023-12-28T04:09:05;16.25;;;3.30;;
65717;SDS011;52445;52.466;-1.016;2023-12-28T04:11:32;19.73;;;3.35;;
65717;SDS011;52445;52.466;-1.016;2023-12-28T04:14:00;10.13;;;2.58;;
65717;SDS011;52445;52.466;-1.016;2023-12-28T04:16:27;7.63;;;2.25;;
65717;SDS011;52445;52.466;-1.016;2023-12-28T04:18:55;7.72;;;3.03;;
65717;SDS011;52445;52.466;-1.016;2023-12-28T04:21:23;12.43;;;2.58;;
65717;SDS011;52445;52.466;-1.016;2023-12-28T04:23:50;8.98;;;2.92;;
65717;SDS011;52445;52.466;-1.016;2023-12-28T04:26:18;8.50;;;1.83;;
65717;SDS011;52445;52.466;-1.016;2023-12-28T04:28:46;9.80;;;2.63;;
65717;SDS011;52445;52.466;-1.016;2023-12-28T04:31:13;19.30;;;3.33;;
65717;SDS011;52445;52.466;-1.016;2023-12-28T04:33:40;20.23;;;2.47;;
65717;SDS011;52445;52.466;-1.016;2023-12-28T04:36:07;13.23;;;3.70;;
65717;SDS011;52445;52.466;-1.016;2023-12-28T04:38:34;10.23;;;2.50;;
65717;SDS011;52445;52.466;-1.016;2023-12-28T04:41:00;16.05;;;3.25;;
65717;SDS011;52445;52.466;-1.016;2023-12-28T04:43:28;12.27;;;2.92;;
65717;SDS011;52445;52.466;-1.016;2023-12-28T04:45:55;9.18;;;2.10;;
65717;SDS011;52445;52.466;-1.016;2023-12-28T04:48:22;12.48;;;2.35;;
65717;SDS011;52445;52.466;-1.016;2023-12-28T04:50:50;8.80;;;2.40;;
65717;SDS011;52445;52.466;-1.016;2023-12-28T04:53:19;11.95;;;3.13;;
65717;SDS011;52445;52.466;-1.016;2023-12-28T04:55:47;13.75;;;3.30;;
65717;SDS011;52445;52.466;-1.016;2023-12-28T04:58:14;14.05;;;2.40;;
65717;SDS011;52445;52.466;-1.016;2023-12-28T05:00:41;18.48;;;3.53;;
65717;SDS011;52445;52.466;-1.016;2023-12-28T05:03:08;10.05;;;2.25;;
65717;SDS011;52445;52.466;-1.016;2023-12-28T05:05:35;10.55;;;3.05;;
65717;SDS011;52445;52.466;-1.016;2023-12-28T05:08:02;9.50;;;2.10;;
65717;SDS011;52445;52.466;-1.016;2023-12-28T05:10:28;14.30;;;2.65;;
65717;SDS011;52445;52.466;-1.016;2023-12-28T05:12:55;9.98;;;2.58;;
65717;SDS011;52445;52.466;-1.016;2023-12-28T05:15:24;12.73;;;1.65;;
65717;SDS011;52445;52.466;-1.016;2023-12-28T05:17:52;8.43;;;2.50;;
65717;SDS011;52445;52.466;-1.016;2023-12-28T05:20:19;18.27;;;3.05;;
65717;SDS011;52445;52.466;-1.016;2023-12-28T05:22:46;12.30;;;2.58;;
65717;SDS011;52445;52.466;-1.016;2023-12-28T05:25:13;14.30;;;1.95;;
65717;SDS011;52445;52.466;-1.016;2023-12-28T05:27:39;10.45;;;2.88;;
65717;SDS011;52445;52.466;-1.016;2023-12-28T05:30:09;7.72;;;2.47;;
65717;SDS011;52445;52.466;-1.016;2023-12-28T05:32:39;13.52;;;2.92;;
65717;SDS011;52445;52.466;-1.016;2023-12-28T05:35:06;14.02;;;3.45;;
65717;SDS011;52445;52.466;-1.016;2023-12-28T05:37:33;8.10;;;2.80;;
65717;SDS011;52445;52.466;-1.016;2023-12-28T05:40:01;8.32;;;2.10;;
65717;SDS011;52445;52.466;-1.016;2023-12-28T05:42:29;8.40;;;2.42;;
65717;SDS011;52445;52.466;-1.016;2023-12-28T05:44:56;6.93;;;2.08;;
65717;SDS011;52445;52.466;-1.016;2023-12-28T05:47:22;5.60;;;1.73;;
65717;SDS011;52445;52.466;-1.016;2023-12-28T05:49:50;5.55;;;1.35;;
65717;SDS011;52445;52.466;-1.016;2023-12-28T05:52:18;5.88;;;0.93;;
65717;SDS011;52445;52.466;-1.016;2023-12-28T05:54:46;3.45;;;1.55;;
65717;SDS011;52445;52.466;-1.016;2023-12-28T05:57:14;3.20;;;0.60;;
65717;SDS011;52445;52.466;-1.016;2023-12-28T05:59:41;3.72;;;1.65;;
65717;SDS011;52445;52.466;-1.016;2023-12-28T06:02:09;1.77;;;1.63;;
65717;SDS011;52445;52.466;-1.016;2023-12-28T06:04:36;1.60;;;1.25;;
65717;SDS011;52445;52.466;-1.016;2023-12-28T06:07:03;1.15;;;1.05;;
65717;SDS011;52445;52.466;-1.016;2023-12-28T06:09:31;2.97;;;1.10;;
65717;SDS011;52445;52.466;-1.016;2023-12-28T06:11:58;2.28;;;0.40;;
65717;SDS011;52445;52.466;-1.016;2023-12-28T06:14:24;1.20;;;0.93;;
65717;SDS011;52445;52.466;-1.016;2023-12-28T06:16:51;4.20;;;0.85;;
65717;SDS011;52445;52.466;-1.016;2023-12-28T06:19:18;3.60;;;1.67;;
65717;SDS011;52445;52.466;-1.016;2023-12-28T06:21:44;5.53;;;0.98;;
65717;SDS011;52445;52.466;-1.016;2023-12-28T06:24:11;6.82;;;2.25;;
65717;SDS011;52445;52.466;-1.016;2023-12-28T06:26:39;4.10;;;2.03;;
65717;SDS011;52445;52.466;-1.016;2023-12-28T06:29:07;7.70;;;2.40;;
65717;SDS011;52445;52.466;-1.016;2023-12-28T06:31:35;7.63;;;1.95;;
65717;SDS011;52445;52.466;-1.016;2023-12-28T06:34:03;7.82;;;2.70;;
65717;SDS011;52445;52.466;-1.016;2023-12-28T06:36:30;4.35;;;2.33;;
65717;SDS011;52445;52.466;-1.016;2023-12-28T06:38:58;12.40;;;1.90;;
65717;SDS011;52445;52.466;-1.016;2023-12-28T06:41:26;7.72;;;2.08;;
65717;SDS011;52445;52.466;-1.016;2023-12-28T06:43:53;9.35;;;2.40;;
65717;SDS011;52445;52.466;-1.016;2023-12-28T06:46:21;8.70;;;1.92;;
65717;SDS011;52445;52.466;-1.016;2023-12-28T06:48:47;6.25;;;3.03;;
65717;SDS011;52445;52.466;-1.016;2023-12-28T06:51:16;11.15;;;2.55;;
65717;SDS011;52445;52.466;-1.016;2023-12-28T06:53:45;9.52;;;2.53;;
65717;SDS011;52445;52.466;-1.016;2023-12-28T06:56:12;11.32;;;2.40;;
65717;SDS011;52445;52.466;-1.016;2023-12-28T06:58:39;11.32;;;3.42;;
65717;SDS011;52445;52.466;-1.016;2023-12-28T07:01:06;12.43;;;2.45;;
65717;SDS011;52445;52.466;-1.016;2023-12-28T07:03:33;13.30;;;2.80;;
65717;SDS011;52445;52.466;-1.016;2023-12-28T07:06:00;7.68;;;2.67;;
65717;SDS011;52445;52.466;-1.016;2023-12-28T07:08:29;12.65;;;2.67;;
65717;SDS011;52445;52.466;-1.016;2023-12-28T07:10:59;10.43;;;2.15;;
65717;SDS011;52445;52.466;-1.016;2023-12-28T07:13:26;14.25;;;2.40;;
65717;SDS011;52445;52.466;-1.016;2023-12-28T07:15:53;6.40;;;2.17;;
65717;SDS011;52445;52.466;-1.016;2023-12-28T07:18:25;14.43;;;3.15;;
65717;SDS011;52445;52.466;-1.016;2023-12-28T07:20:52;5.10;;;1.88;;
65717;SDS011;52445;52.466;-1.016;2023-12-28T07:23:18;6.20;;;1.67;;
65717;SDS011;52445;52.466;-1.016;2023-12-28T07:25:45;4.82;;;2.25;;
65717;SDS011;52445;52.466;-1.016;2023-12-28T07:28:12;12.48;;;2.60;;
65717;SDS011;52445;52.466;-1.016;2023-12-28T07:30:39;9.85;;;2.83;;
65717;SDS011;52445;52.466;-1.016;2023-12-28T07:33:07;6.43;;;1.05;;
65717;SDS011;52445;52.466;-1.016;2023-12-28T07:35:34;3.75;;;2.40;;
65717;SDS011;52445;52.466;-1.016;2023-12-28T07:38:01;7.05;;;2.20;;
65717;SDS011;52445;52.466;-1.016;2023-12-28T07:40:28;12.95;;;2.15;;
65717;SDS011;52445;52.466;-1.016;2023-12-28T07:42:55;6.13;;;2.28;;
65717;SDS011;52445;52.466;-1.016;2023-12-28T07:45:23;10.77;;;2.83;;
65717;SDS011;52445;52.466;-1.016;2023-12-28T07:47:50;13.68;;;2.75;;
65717;SDS011;52445;52.466;-1.016;2023-12-28T07:50:18;7.47;;;2.53;;
65717;SDS011;52445;52.466;-1.016;2023-12-28T07:52:47;5.97;;;2.58;;
65717;SDS011;52445;52.466;-1.016;2023-12-28T07:55:14;8.98;;;3.40;;
65717;SDS011;52445;52.466;-1.016;2023-12-28T07:57:41;15.50;;;3.97;;
65717;SDS011;52445;52.466;-1.016;2023-12-28T08:00:09;8.73;;;2.33;;
65717;SDS011;52445;52.466;-1.016;2023-12-28T08:02:36;9.18;;;3.15;;
65717;SDS011;52445;52.466;-1.016;2023-12-28T08:05:04;15.30;;;3.20;;
65717;SDS011;52445;52.466;-1.016;2023-12-28T08:07:31;14.02;;;2.67;;
65717;SDS011;52445;52.466;-1.016;2023-12-28T08:09:58;12.07;;;2.47;;
65717;SDS011;52445;52.466;-1.016;2023-12-28T08:12:26;15.70;;;2.63;;
65717;SDS011;52445;52.466;-1.016;2023-12-28T08:14:54;13.90;;;3.13;;
65717;SDS011;52445;52.466;-1.016;2023-12-28T08:17:21;13.88;;;2.28;;
65717;SDS011;52445;52.466;-1.016;2023-12-28T08:19:48;13.27;;;2.45;;
65717;SDS011;52445;52.466;-1.016;2023-12-28T08:22:15;7.43;;;1.95;;
65717;SDS011;52445;52.466;-1.016;2023-12-28T08:24:42;22.60;;;4.25;;
65717;SDS011;52445;52.466;-1.016;2023-12-28T08:27:09;19.23;;;2.25;;
65717;SDS011;52445;52.466;-1.016;2023-12-28T08:29:36;14.73;;;3.33;;
65717;SDS011;52445;52.466;-1.016;2023-12-28T08:32:03;9.90;;;3.40;;
65717;SDS011;52445;52.466;-1.016;2023-12-28T08:34:30;11.73;;;2.80;;
65717;SDS011;52445;52.466;-1.016;2023-12-28T08:36:57;15.43;;;3.08;;
65717;SDS011;52445;52.466;-1.016;2023-12-28T08:39:24;11.65;;;2.35;;
65717;SDS011;52445;52.466;-1.016;2023-12-28T08:41:51;14.43;;;3.20;;
65717;SDS011;52445;52.466;-1.016;2023-12-28T08:44:17;7.45;;;2.78;;
65717;SDS011;52445;52.466;-1.016;2023-12-28T08:46:44;11.85;;;2.60;;
65717;SDS011;52445;52.466;-1.016;2023-12-28T08:49:12;14.35;;;3.65;;
65717;SDS011;52445;52.466;-1.016;2023-12-28T08:51:40;11.32;;;2.83;;
65717;SDS011;52445;52.466;-1.016;2023-12-28T08:54:11;18.20;;;5.15;;
65717;SDS011;52445;52.466;-1.016;2023-12-28T08:56:39;12.00;;;3.00;;
65717;SDS011;52445;52.466;-1.016;2023-12-28T08:59:06;22.83;;;3.70;;
65717;SDS011;52445;52.466;-1.016;2023-12-28T09:01:32;13.60;;;4.18;;
65717;SDS011;52445;52.466;-1.016;2023-12-28T09:03:59;7.65;;;2.97;;
65717;SDS011;52445;52.466;-1.016;2023-12-28T09:06:26;6.45;;;3.53;;
65717;SDS011;52445;52.466;-1.016;2023-12-28T09:08:53;9.48;;;4.43;;
65717;SDS011;52445;52.466;-1.016;2023-12-28T09:11:22;2.63;;;2.42;;
65717;SDS011;52445;52.466;-1.016;2023-12-28T09:13:49;3.60;;;2.28;;
65717;SDS011;52445;52.466;-1.016;2023-12-28T09:16:16;3.20;;;2.28;;
65717;SDS011;52445;52.466;-1.016;2023-12-28T09:18:43;6.38;;;1.98;;
65717;SDS011;52445;52.466;-1.016;2023-12-28T09:21:10;3.35;;;2.80;;
65717;SDS011;52445;52.466;-1.016;2023-12-28T09:23:37;3.88;;;1.50;;
65717;SDS011;52445;52.466;-1.016;2023-12-28T09:26:06;2.88;;;1.70;;
65717;SDS011;52445;52.466;-1.016;2023-12-28T09:28:33;7.93;;;2.58;;
65717;SDS011;52445;52.466;-1.016;2023-12-28T09:31:01;2.20;;;1.95;;
65717;SDS011;52445;52.466;-1.016;2023-12-28T09:33:28;3.17;;;0.70;;
65717;SDS011;52445;52.466;-1.016;2023-12-28T09:35:57;2.58;;;1.63;;
65717;SDS011;52445;52.466;-1.016;2023-12-28T09:38:26;6.45;;;1.52;;
65717;SDS011;52445;52.466;-1.016;2023-12-28T09:40:54;4.82;;;0.85;;
65717;SDS011;52445;52.466;-1.016;2023-12-28T09:43:24;5.13;;;1.90;;
65717;SDS011;52445;52.466;-1.016;2023-12-28T09:45:52;2.08;;;1.52;;
65717;SDS011;52445;52.466;-1.016;2023-12-28T09:48:21;5.07;;;1.65;;
65717;SDS011;52445;52.466;-1.016;2023-12-28T09:50:49;5.70;;;2.90;;
65717;SDS011;52445;52.466;-1.016;2023-12-28T09:53:22;5.28;;;1.60;;
65717;SDS011;52445;52.466;-1.016;2023-12-28T09:55:49;10.85;;;2.65;;
65717;SDS011;52445;52.466;-1.016;2023-12-28T09:58:18;8.68;;;3.83;;
65717;SDS011;52445;52.466;-1.016;2023-12-28T10:00:47;2.88;;;1.50;;
65717;SDS011;52445;52.466;-1.016;2023-12-28T10:03:16;10.25;;;1.70;;
65717;SDS011;52445;52.466;-1.016;2023-12-28T10:05:44;11.98;;;2.40;;
65717;SDS011;52445;52.466;-1.016;2023-12-28T10:08:12;6.75;;;2.25;;
65717;SDS011;52445;52.466;-1.016;2023-12-28T10:10:41;12.52;;;3.08;;
65717;SDS011;52445;52.466;-1.016;2023-12-28T10:13:09;8.27;;;2.28;;
65717;SDS011;52445;52.466;-1.016;2023-12-28T10:15:37;9.30;;;1.70;;
65717;SDS011;52445;52.466;-1.016;2023-12-28T10:18:04;14.10;;;2.78;;
65717;SDS011;52445;52.466;-1.016;2023-12-28T10:20:32;12.15;;;2.35;;
65717;SDS011;52445;52.466;-1.016;2023-12-28T10:22:59;18.45;;;2.67;;
65717;SDS011;52445;52.466;-1.016;2023-12-28T10:25:29;9.60;;;3.20;;
65717;SDS011;52445;52.466;-1.016;2023-12-28T10:27:56;9.55;;;2.60;;
65717;SDS011;52445;52.466;-1.016;2023-12-28T10:30:23;12.55;;;3.22;;
65717;SDS011;52445;52.466;-1.016;2023-12-28T10:32:50;17.67;;;4.28;;
65717;SDS011;52445;52.466;-1.016;2023-12-28T10:35:18;14.18;;;3.67;;
65717;SDS011;52445;52.466;-1.016;2023-12-28T10:37:45;17.10;;;3.10;;
65717;SDS011;52445;52.466;-1.016;2023-12-28T10:40:15;7.32;;;2.25;;
65717;SDS011;52445;52.466;-1.016;2023-12-28T10:42:51;11.88;;;2.17;;
65717;SDS011;52445;52.466;-1.016;2023-12-28T10:45:22;20.35;;;2.35;;
65717;SDS011;52445;52.466;-1.016;2023-12-28T10:48:09;11.23;;;2.60;;
65717;SDS011;52445;52.466;-1.016;2023-12-28T10:50:41;22.55;;;3.17;;
65717;SDS011;52445;52.466;-1.016;2023-12-28T10:53:17;13.38;;;3.42;;
65717;SDS011;52445;52.466;-1.016;2023-12-28T10:59:04;10.25;;;2.80;;
65717;SDS011;52445;52.466;-1.016;2023-12-28T11:01:37;8.23;;;2.95;;
65717;SDS011;52445;52.466;-1.016;2023-12-28T11:04:12;8.63;;;3.60;;
65717;SDS011;52445;52.466;-1.016;2023-12-28T11:06:48;12.90;;;1.42;;
65717;SDS011;52445;52.466;-1.016;2023-12-28T11:09:16;4.25;;;1.38;;
65717;SDS011;52445;52.466;-1.016;2023-12-28T11:11:44;10.10;;;1.33;;
65717;SDS011;52445;52.466;-1.016;2023-12-28T11:14:12;12.00;;;2.17;;
65717;SDS011;52445;52.466;-1.016;2023-12-28T11:16:39;9.65;;;1.75;;
65717;SDS011;52445;52.466;-1.016;2023-12-28T11:19:08;6.43;;;1.60;;
65717;SDS011;52445;52.466;-1.016;2023-12-28T11:21:37;9.77;;;1.50;;
65717;SDS011;52445;52.466;-1.016;2023-12-28T11:24:05;14.90;;;1.55;;
65717;SDS011;52445;52.466;-1.016;2023-12-28T11:26:33;9.07;;;1.15;;
65717;SDS011;52445;52.466;-1.016;2023-12-28T11:29:01;10.05;;;1.48;;
65717;SDS011;52445;52.466;-1.016;2023-12-28T11:31:28;9.38;;;0.90;;
65717;SDS011;52445;52.466;-1.016;2023-12-28T11:34:00;7.63;;;1.13;;
65717;SDS011;52445;52.466;-1.016;2023-12-28T11:36:36;13.95;;;1.35;;
65717;SDS011;52445;52.466;-1.016;2023-12-28T11:39:09;4.57;;;1.25;;
65717;SDS011;52445;52.466;-1.016;2023-12-28T11:41:37;9.30;;;1.50;;
65717;SDS011;52445;52.466;-1.016;2023-12-28T11:44:05;15.45;;;1.63;;
65717;SDS011;52445;52.466;-1.016;2023-12-28T11:46:32;11.73;;;1.55;;
65717;SDS011;52445;52.466;-1.016;2023-12-28T11:49:03;8.77;;;1.08;;
65717;SDS011;52445;52.466;-1.016;2023-12-28T11:51:32;13.00;;;1.25;;
65717;SDS011;52445;52.466;-1.016;2023-12-28T11:54:01;5.53;;;1.95;;
65717;SDS011;52445;52.466;-1.016;2023-12-28T11:56:30;6.70;;;1.42;;
65717;SDS011;52445;52.466;-1.016;2023-12-28T11:58:58;6.93;;;0.90;;
65717;SDS011;52445;52.466;-1.016;2023-12-28T12:01:25;7.25;;;1.20;;
65717;SDS011;52445;52.466;-1.016;2023-12-28T12:03:53;5.43;;;1.63;;
65717;SDS011;52445;52.466;-1.016;2023-12-28T12:06:21;6.07;;;1.00;;
65717;SDS011;52445;52.466;-1.016;2023-12-28T12:08:48;13.95;;;2.03;;
65717;SDS011;52445;52.466;-1.016;2023-12-28T12:11:16;8.45;;;1.00;;
65717;SDS011;52445;52.466;-1.016;2023-12-28T12:13:44;4.10;;;0.77;;
65717;SDS011;52445;52.466;-1.016;2023-12-28T12:16:13;5.40;;;0.82;;
65717;SDS011;52445;52.466;-1.016;2023-12-28T12:18:40;3.95;;;0.77;;
65717;SDS011;52445;52.466;-1.016;2023-12-28T12:21:07;6.85;;;1.70;;
65717;SDS011;52445;52.466;-1.016;2023-12-28T12:23:34;8.65;;;1.52;;
65717;SDS011;52445;52.466;-1.016;2023-12-28T12:26:04;8.90;;;1.50;;
65717;SDS011;52445;52.466;-1.016;2023-12-28T12:28:31;4.10;;;1.42;;
65717;SDS011;52445;52.466;-1.016;2023-12-28T12:30:58;9.10;;;0.68;;
65717;SDS011;52445;52.466;-1.016;2023-12-28T12:33:27;10.55;;;1.20;;
65717;SDS011;52445;52.466;-1.016;2023-12-28T12:35:54;4.60;;;1.05;;
65717;SDS011;52445;52.466;-1.016;2023-12-28T12:38:21;8.10;;;1.30;;
65717;SDS011;52445;52.466;-1.016;2023-12-28T12:40:50;10.02;;;1.13;;
65717;SDS011;52445;52.466;-1.016;2023-12-28T12:43:18;13.52;;;1.60;;
65717;SDS011;52445;52.466;-1.016;2023-12-28T12:45:51;8.82;;;1.30;;
65717;SDS011;52445;52.466;-1.016;2023-12-28T12:48:18;10.52;;;1.00;;
65717;SDS011;52445;52.466;-1.016;2023-12-28T12:50:45;9.63;;;2.28;;
65717;SDS011;52445;52.466;-1.016;2023-12-28T12:53:12;6.53;;;0.80;;
65717;SDS011;52445;52.466;-1.016;2023-12-28T12:55:39;2.78;;;0.77;;
65717;SDS011;52445;52.466;-1.016;2023-12-28T12:58:05;5.43;;;1.05;;
65717;SDS011;52445;52.466;-1.016;2023-12-28T13:00:32;6.68;;;1.00;;
65717;SDS011;52445;52.466;-1.016;2023-12-28T13:03:01;9.05;;;0.70;;
65717;SDS011;52445;52.466;-1.016;2023-12-28T13:05:29;6.82;;;1.58;;
65717;SDS011;52445;52.466;-1.016;2023-12-28T13:07:56;15.57;;;2.60;;
65717;SDS011;52445;52.466;-1.016;2023-12-28T13:10:24;5.57;;;0.80;;
65717;SDS011;52445;52.466;-1.016;2023-12-28T13:12:51;8.73;;;1.70;;
65717;SDS011;52445;52.466;-1.016;2023-12-28T13:15:19;12.68;;;1.77;;
65717;SDS011;52445;52.466;-1.016;2023-12-28T13:17:46;11.10;;;1.67;;
65717;SDS011;52445;52.466;-1.016;2023-12-28T13:20:13;17.58;;;1.90;;
65717;SDS011;52445;52.466;-1.016;2023-12-28T13:22:40;3.53;;;1.27;;
65717;SDS011;52445;52.466;-1.016;2023-12-28T13:25:07;7.85;;;1.17;;
65717;SDS011;52445;52.466;-1.016;2023-12-28T13:27:33;7.78;;;0.50;;
65717;SDS011;52445;52.466;-1.016;2023-12-28T13:30:00;15.25;;;1.10;;
65717;SDS011;52445;52.466;-1.016;2023-12-28T13:32:27;7.35;;;0.98;;
65717;SDS011;52445;52.466;-1.016;2023-12-28T13:34:54;7.35;;;1.05;;
65717;SDS011;52445;52.466;-1.016;2023-12-28T13:39:50;6.85;;;2.55;;
65717;SDS011;52445;52.466;-1.016;2023-12-28T13:42:17;9.23;;;1.83;;
65717;SDS011;52445;52.466;-1.016;2023-12-28T13:44:43;7.40;;;1.45;;
65717;SDS011;52445;52.466;-1.016;2023-12-28T13:47:10;11.90;;;2.22;;
65717;SDS011;52445;52.466;-1.016;2023-12-28T13:49:37;8.38;;;1.60;;
65717;SDS011;52445;52.466;-1.016;2023-12-28T13:52:04;7.95;;;1.02;;
65717;SDS011;52445;52.466;-1.016;2023-12-28T13:54:31;4.47;;;1.20;;
65717;SDS011;52445;52.466;-1.016;2023-12-28T13:56:57;4.70;;;1.13;;
65717;SDS011;52445;52.466;-1.016;2023-12-28T13:59:25;13.57;;;1.58;;
65717;SDS011;52445;52.466;-1.016;2023-12-28T14:01:52;10.88;;;1.42;;
65717;SDS011;52445;52.466;-1.016;2023-12-28T14:04:19;8.68;;;2.70;;
65717;SDS011;52445;52.466;-1.016;2023-12-28T14:06:45;1.90;;;0.75;;
65717;SDS011;52445;52.466;-1.016;2023-12-28T14:09:13;9.50;;;1.50;;
65717;SDS011;52445;52.466;-1.016;2023-12-28T14:11:46;9.18;;;1.85;;
65717;SDS011;52445;52.466;-1.016;2023-12-28T14:14:13;6.32;;;1.75;;
65717;SDS011;52445;52.466;-1.016;2023-12-28T14:16:41;14.07;;;2.30;;
65717;SDS011;52445;52.466;-1.016;2023-12-28T14:19:13;12.20;;;3.33;;
65717;SDS011;52445;52.466;-1.016;2023-12-28T14:21:40;23.25;;;5.00;;
65717;SDS011;52445;52.466;-1.016;2023-12-28T14:24:07;39.03;;;8.90;;
65717;SDS011;52445;52.466;-1.016;2023-12-28T14:26:40;39.83;;;8.63;;
65717;SDS011;52445;52.466;-1.016;2023-12-28T14:29:09;18.35;;;4.47;;
65717;SDS011;52445;52.466;-1.016;2023-12-28T14:31:36;21.80;;;5.30;;
65717;SDS011;52445;52.466;-1.016;2023-12-28T14:34:04;26.35;;;6.38;;
65717;SDS011;52445;52.466;-1.016;2023-12-28T14:36:34;24.95;;;5.22;;
65717;SDS011;52445;52.466;-1.016;2023-12-28T14:39:04;22.73;;;8.00;;
65717;SDS011;52445;52.466;-1.016;2023-12-28T14:41:34;23.08;;;5.22;;